• Join FlightAware (Why Join?)
  • Login
  • US Flag 
11:09PM EST


 

Airport Tracker/Info


-or-


 

Live Flight TrackerFlight Track Log ✈ P2-NAX ✈ 23-Jul-2014 ✈ AYTB / TBG - YBCS / CNS

Flight Track Log - Related Links

Times and Time Zones

All times are in EDT time to prevent confusion due to time zone crossing. See the P2-NAX flight status page for this flight to view local times or setup timezone preferences in your user account.

Time Position Orientation Groundspeed Altitude Reporting Facility
EDT Latitude Longitude Course Direction KTS MPH feet Rate Location/Type
02:34AM -6.2892 141.6072 159° South  Level Estimated
02:35AM -6.3217 141.6195 159° South  Level Estimated
02:36AM -6.3543 141.6318 159° South  Level Estimated
02:37AM -6.3869 141.6441 159° South  Level Estimated
02:38AM -6.4195 141.6565 159° South  Level Estimated
02:39AM -6.4521 141.6688 159° South  Level Estimated
02:40AM -6.4847 141.6811 159° South  Level Estimated
02:41AM -6.5173 141.6935 159° South  Level Estimated
02:42AM -6.5499 141.7058 159° South  Level Estimated
02:43AM -6.5825 141.7182 159° South  Level Estimated
02:44AM -6.6151 141.7305 159° South  Level Estimated
02:45AM -6.6477 141.7428 159° South  Level Estimated
02:46AM -6.6803 141.7552 159° South  Level Estimated
02:47AM -6.7128 141.7675 159° South  Level Estimated
02:48AM -6.7454 141.7799 159° South  Level Estimated
02:49AM -6.7780 141.7922 159° South  Level Estimated
02:50AM -6.8106 141.8046 159° South  Level Estimated
02:51AM -6.8432 141.8169 159° South  Level Estimated
02:52AM -6.8758 141.8293 159° South  Level Estimated
02:53AM -6.9084 141.8416 159° South  Level Estimated
02:54AM -6.9410 141.8540 159° South  Level Estimated
02:55AM -6.9735 141.8663 159° South  Level Estimated
02:56AM -7.0061 141.8787 159° South  Level Estimated
02:57AM -7.0387 141.8910 159° South  Level Estimated
02:58AM -7.0713 141.9034 159° South  Level Estimated
02:59AM -7.1039 141.9158 159° South  Level Estimated
03:00AM -7.1365 141.9281 159° South  Level Estimated
03:01AM -7.1691 141.9405 159° South  Level Estimated
03:02AM -7.2017 141.9529 159° South  Level Estimated
03:03AM -7.2342 141.9652 159° South  Level Estimated
03:04AM -7.2668 141.9776 159° South  Level Estimated
03:05AM -7.2994 141.9900 159° South  Level Estimated
03:06AM -7.3320 142.0024 159° South  Level Estimated
03:07AM -7.3646 142.0148 159° South  Level Estimated
03:08AM -7.3972 142.0271 159° South  Level Estimated
03:09AM -7.4297 142.0395 159° South  Level Estimated
03:10AM -7.4623 142.0519 159° South  Level Estimated
03:11AM -7.4949 142.0643 159° South  Level Estimated
03:12AM -7.5275 142.0767 159° South  Level Estimated
03:13AM -7.5601 142.0891 159° South  Level Estimated
03:14AM -7.5926 142.1015 159° South  Level Estimated
03:15AM -7.6252 142.1138 159° South  Level Estimated
03:15AM -9.4185 143.3146 163° South 23,000  Level Aus ATC (Calculated)
03:17AM -9.4857 143.3363 162° South  Level FlightAware Approximate
03:17AM -9.5014 143.3414 163° South 23,000  Level Aus ATC (Calculated)
03:17AM -9.5014 143.3414 163° South 23,000  Level Aus ATC (Calculated)
03:18AM -9.5635 143.3614 163° South 23,000  Level Aus ATC (Calculated)
03:18AM -9.5635 143.3614 163° South 23,000  Level Aus ATC (Calculated)
03:20AM -9.6013 143.3736 162° South  Level FlightAware Approximate
03:21AM -9.6347 143.3844 162° South  Level FlightAware Approximate
03:22AM -9.6680 143.3952 162° South  Level FlightAware Approximate
03:23AM -9.7014 143.4060 162° South  Level FlightAware Approximate
03:24AM -9.7347 143.4167 162° South  Level FlightAware Approximate
03:25AM -9.7681 143.4275 162° South  Level FlightAware Approximate
03:26AM -9.7347 143.4167 342° North  Level FlightAware Approximate
03:26AM -10.0318 143.5094 163° South 23,000  Level Aus ATC (Calculated)
03:27AM -10.0652 143.5199 163° South  Level FlightAware Approximate
03:28AM -10.0987 143.5303 163° South  Level FlightAware Approximate
03:29AM -10.1322 143.5408 163° South  Level FlightAware Approximate
03:30AM -10.1656 143.5512 163° South  Level FlightAware Approximate
03:31AM -10.1991 143.5616 163° South  Level FlightAware Approximate
03:31AM -10.3840 143.6194 163° South 23,000  Level Aus ATC (Calculated)
03:32AM -10.2325 143.5721 163° South  Level FlightAware Approximate
03:33AM -10.4453 143.6385 163° South  Level FlightAware Approximate
03:34AM -10.4788 143.6490 163° South  Level FlightAware Approximate
03:35AM -10.5122 143.6595 163° South  Level FlightAware Approximate
03:36AM -10.5457 143.6699 163° South  Level FlightAware Approximate
03:37AM -10.5791 143.6804 163° South  Level FlightAware Approximate
03:38AM -10.6126 143.6909 163° South  Level FlightAware Approximate
03:39AM -10.6460 143.7013 163° South  Level FlightAware Approximate
03:40AM -10.6795 143.7118 163° South  Level FlightAware Approximate
03:41AM -10.7129 143.7223 163° South  Level FlightAware Approximate
03:42AM -10.7464 143.7328 163° South  Level FlightAware Approximate
03:43AM -10.7799 143.7433 163° South  Level FlightAware Approximate
03:44AM -10.8133 143.7537 163° South  Level FlightAware Approximate
03:45AM -10.8468 143.7642 163° South  Level FlightAware Approximate
03:46AM -10.8802 143.7747 163° South  Level FlightAware Approximate
03:47AM -10.9137 143.7852 163° South  Level FlightAware Approximate
03:48AM -10.9471 143.7957 163° South  Level FlightAware Approximate
03:49AM -10.9806 143.8062 163° South  Level FlightAware Approximate
03:50AM -11.0140 143.8167 163° South  Level FlightAware Approximate
03:51AM -11.0475 143.8272 163° South  Level FlightAware Approximate
03:52AM -11.0809 143.8377 163° South  Level FlightAware Approximate
03:53AM -11.1144 143.8482 163° South  Level FlightAware Approximate
03:54AM -11.1478 143.8587 163° South  Level FlightAware Approximate
03:54AM -11.8626 144.0838 163° South 23,000  Level Aus ATC (Calculated)
03:55AM -11.1813 143.8692 163° South  Level FlightAware Approximate
03:56AM -11.9027 144.0965 163° South  Level FlightAware Approximate
03:57AM -11.9361 144.1071 163° South  Level FlightAware Approximate
03:58AM -11.9696 144.1177 163° South  Level FlightAware Approximate
03:59AM -12.0030 144.1282 163° South  Level FlightAware Approximate
04:00AM -12.0364 144.1388 163° South  Level FlightAware Approximate
04:01AM -12.0699 144.1495 163° South  Level FlightAware Approximate
04:02AM -12.3120 144.2265 163° South 23,000  Level Aus ATC (Calculated)
04:02AM -12.1033 144.1601 163° South  Level FlightAware Approximate
04:02AM -12.3120 144.2265 163° South 23,000  Level Aus ATC (Calculated)
04:03AM -12.3455 144.2371 163° South  Level FlightAware Approximate
04:04AM -12.3694 144.2447 163° South  Level FlightAware Approximate
04:05AM -12.4024 144.2552 163° South  Level FlightAware Approximate
04:06AM -12.4355 144.2658 163° South  Level FlightAware Approximate
04:07AM -12.4686 144.2763 163° South  Level FlightAware Approximate
04:08AM -12.5017 144.2868 163° South  Level FlightAware Approximate
04:08AM -12.7750 144.3741 163° South 23,000  Level Aus ATC (Calculated)
04:09AM -12.5347 144.2974 163° South  Level FlightAware Approximate
04:10AM -12.8092 144.3850 163° South  Level FlightAware Approximate
04:11AM -12.8423 144.3955 163° South  Level FlightAware Approximate
04:12AM -12.8753 144.4061 163° South  Level FlightAware Approximate
04:13AM -12.9084 144.4167 163° South  Level FlightAware Approximate
04:14AM -12.9415 144.4272 163° South  Level FlightAware Approximate
04:15AM -12.9745 144.4378 163° South  Level FlightAware Approximate
04:16AM -13.0076 144.4484 163° South  Level FlightAware Approximate
04:17AM -13.0407 144.4590 163° South  Level FlightAware Approximate
04:18AM -13.0737 144.4696 163° South  Level FlightAware Approximate
04:19AM -13.1068 144.4802 163° South  Level FlightAware Approximate
04:20AM -13.1399 144.4908 163° South  Level FlightAware Approximate
04:21AM -13.1729 144.5014 163° South  Level FlightAware Approximate
04:22AM -13.2060 144.5120 163° South  Level FlightAware Approximate
04:23AM -13.2391 144.5226 163° South  Level FlightAware Approximate
04:24AM -13.2721 144.5332 163° South  Level FlightAware Approximate
04:25AM -13.3052 144.5438 163° South  Level FlightAware Approximate
04:25AM -13.5778 144.6324 163° South 267 307 23,100  Level Aus ATC (RADAR)
04:25AM -13.5934 144.6416 150° Southeast 253 291 23,100  Level Aus ATC (RADAR)
04:26AM -13.6271 144.6524 163° South 251 289 23,100  Level Aus ATC (RADAR)
04:27AM -13.6777 144.6678 164° South 251 289 23,100  Level Aus ATC (RADAR)
04:28AM -13.7463 144.6872 165° South 253 291 23,100  Level Aus ATC (RADAR)
04:28AM -13.7912 144.7033 161° South 254 292 23,100  Level Aus ATC (RADAR)
04:29AM -13.8533 144.7236 162° South 255 293 23,100  Level Aus ATC (RADAR)
04:30AM -13.9221 144.7435 164° South 254 292 23,100  Level Aus ATC (RADAR)
04:31AM -13.9565 144.7526 166° South 254 292 23,100  Level Aus ATC (RADAR)
04:32AM -14.0301 144.7790 161° South 257 296 23,100  Level Aus ATC (RADAR)
04:32AM -14.0643 144.7911 161° South 258 297 23,100  Level Aus ATC (RADAR)
04:33AM -14.1270 144.8113 163° South 256 295 23,100  Level Aus ATC (RADAR)
04:35AM -14.2360 144.8448 163° South 258 297 23,100  Level Aus ATC (RADAR)
04:35AM -14.2590 144.8529 161° South 259 298 23,100  Level Aus ATC (RADAR)
04:36AM -14.3053 144.8665 164° South 259 298 23,100  Level Aus ATC (RADAR)
04:37AM -14.3801 144.8918 162° South 260 299 23,100  Level Aus ATC (RADAR)
04:37AM -14.4201 144.9049 162° South 257 296 23,100  Level Aus ATC (RADAR)
04:38AM -14.4836 144.9239 164° South 257 296 23,100  Level Aus ATC (RADAR)
04:40AM -14.5746 144.9544 162° South 256 295 23,100  Level Aus ATC (RADAR)
04:40AM -14.5974 144.9627 161° South 256 295 23,100  Level Aus ATC (RADAR)
04:41AM -14.6436 144.9767 164° South 259 298 23,100  Level Aus ATC (RADAR)
04:42AM -14.7125 144.9982 163° South 258 297 23,100  Level Aus ATC (RADAR)
04:42AM -14.7469 145.0098 162° South 259 298 23,100  Level Aus ATC (RADAR)
04:43AM -14.8159 145.0317 163° South 258 297 23,100  Level Aus ATC (RADAR)
04:44AM -14.9020 145.0587 163° South 258 297 23,100  Level Aus ATC (RADAR)
04:45AM -14.9596 145.0768 163° South 259 298 23,100  Level Aus ATC (RADAR)
04:46AM -14.9823 145.0852 160° South 257 296 23,100  Level Aus ATC (RADAR)
04:46AM -15.0227 145.0983 163° South 259 298 23,100  Level Aus ATC (RADAR)
04:47AM -15.0740 145.1165 161° South 258 297 23,100  Level Aus ATC (RADAR)
04:47AM -15.1142 145.1291 163° South 257 296 23,100  Level Aus ATC (RADAR)
04:48AM -15.1486 145.1398 163° South 257 296 23,100  Level Aus ATC (RADAR)
04:49AM -15.1945 145.1550 162° South 259 298 23,100  Level Aus ATC (RADAR)
04:49AM -15.2458 145.1714 163° South 257 296 23,100  Level Aus ATC (RADAR)
04:50AM -15.3093 145.1914 163° South 259 298 23,100  Level Aus ATC (RADAR)
04:51AM -15.3494 145.2050 162° South 259 298 23,100  Level Aus ATC (RADAR)
04:52AM -15.4068 145.2237 163° South 259 298 23,100  Level Aus ATC (RADAR)
04:52AM -15.4355 145.2331 162° South 258 297 23,100  Level Aus ATC (RADAR)
04:53AM -15.4813 145.2488 162° South 258 297 23,100  Level Aus ATC (RADAR)
04:53AM -15.5215 145.2615 163° South 258 297 23,100  Level Aus ATC (RADAR)
04:54AM -15.5846 145.2821 163° South 256 295 23,100  Level Aus ATC (RADAR)
04:55AM -15.6193 145.2933 163° South 259 298 23,100  Level Aus ATC (RADAR)
04:55AM -15.6423 145.3007 163° South 259 298 23,100  Level Aus ATC (RADAR)
04:56AM -15.6827 145.3137 163° South 259 298 23,100  Level Aus ATC (RADAR)
04:57AM -15.7401 145.3330 162° South 259 298 23,100 -120 Level Aus ATC (RADAR)
04:57AM -15.7752 145.3441 163° South 263 303 23,000 -1,200 Descending Aus ATC (RADAR)
04:58AM -15.8205 145.3592 162° South 291 335 21,800 -1,920 Descending Aus ATC (RADAR)
04:58AM -15.8759 145.3768 163° South 312 359 20,600 -1,680 Descending Aus ATC (RADAR)
04:59AM -15.9313 145.3948 163° South 314 361 19,600 -1,680 Descending Aus ATC (RADAR)
05:00AM -16.0060 145.4189 163° South 306 352 18,000 -1,740 Descending Aus ATC (RADAR)
05:00AM -16.0329 145.4269 164° South 304 350 17,500 -1,680 Descending Aus ATC (RADAR)
05:01AM -16.0785 145.4413 163° South 294 338 16,500 -1,620 Descending Aus ATC (RADAR)
05:02AM -16.1365 145.4619 161° South 293 337 15,400 -1,620 Descending Aus ATC (RADAR)
05:02AM -16.1821 145.4775 162° South 297 342 14,400 -1,680 Descending Aus ATC (RADAR)
05:03AM -16.2474 145.4993 162° South 295 339 13,100 -1,680 Descending Aus ATC (RADAR)
05:03AM -16.2734 145.5075 163° South 294 338 12,500 -1,560 Descending Aus ATC (RADAR)
05:04AM -16.3178 145.5224 162° South 288 331 11,700 -1,560 Descending Aus ATC (RADAR)
05:05AM -16.4104 145.5524 163° South 273 314 9,700 -1,620 Descending Aus ATC (RADAR)
05:05AM -16.4338 145.5601 163° South 268 308 9,200 -1,440 Descending Aus ATC (RADAR)
05:06AM -16.4684 145.5714 162° South 263 303 8,500 -1,380 Descending Aus ATC (RADAR)
05:07AM -16.5361 145.5952 161° South 255 293 7,200 -1,380 Descending Aus ATC (RADAR)
05:08AM -16.5729 145.6106 158° South 245 282 6,400 -1,440 Descending Aus ATC (RADAR)
05:08AM -16.6247 145.6342 156° South 244 281 5,200 -1,440 Descending Aus ATC (RADAR)
05:09AM -16.6663 145.6532 156° South 245 282 4,300 -1,380 Descending Aus ATC (RADAR)
05:10AM -16.7331 145.6833 157° South 212 244 2,800 -1,260 Descending Aus ATC (RADAR)
05:11AM -16.7522 145.6921 156° South 189 217 2,400 -840 Descending Aus ATC (RADAR)
05:11AM -16.7796 145.7044 157° South 163 188 1,900 -840 Descending Aus ATC (RADAR)
05:12AM -16.8037 145.7154 156° South 144 166 1,300 -720 Descending Aus ATC (RADAR)
05:13AM -16.8203 145.7231 156° South 116 133 1,000 -540 Descending Aus ATC (RADAR)
05:13AM -16.8394 145.7316 157° South 101 116 600 -540 Descending Aus ATC (RADAR)
05:14AM -16.8499 145.7363 157° South 100 115 400 -540 Descending Aus ATC (RADAR)
05:14AM -16.8636 145.7428 156° South 91 105 100 -540 Descending Aus ATC (RADAR)
05:15AM -16.8726 145.7464 159° South 83 96 -240 Descending Aus ATC (RADAR)